Aviation Digital Data Service (ADDS)

Output produced by METARs form (0232 UTC 21 November 2017)
found at http://www.aviationweather.gov/adds/metars/
 
METAR text: KTAZ 210215Z AUTO 18014G21KT 10SM CLR 05/00 A2987 RMK AO2 T00541005
Conditions at: KTAZ (TAYLORVILLE , IL, US) observed 0215 UTC 21 November 2017
Temperature: 5.4°C (42°F)
Dewpoint: -0.5°C (31°F) [RH = 66%]
Pressure (altimeter): 29.87 inches Hg (1011.6 mb)
Winds: from the S (180 degrees) at 16 MPH (14 knots; 7.3 m/s)
gusting to 24 MPH (21 knots; 10.9 m/s)
Visibility: 10 or more miles (16+ km)
Ceiling: at least 12,000 feet AGL
Clouds: sky clear below 12,000 feet AGL
Weather: automated observation with no human augmentation;
there may or may not be significant weather present at this time